Time;durP1;ratioP1;P1;durP2;ratioP2;P2;SDS_P1;SDS_P2;PMS_P1;PMS_P2;Temp;Humidity;BMP_temperature;BMP_pressure;BME280_temperature;BME280_humidity;BME280_pressure;Samples;Min_cycle;Max_cycle;Signal;HPM_P1;HPM_P2
2022/07/23 00:01:56;;;;;;;7.88;4.32;;;;;;;22.64;53.71;94748.75;5052753;28;20217;-64
2022/07/23 00:04:21;;;;;;;9.10;4.65;;;;;;;22.63;53.27;94759.28;5034599;28;20576;-64
2022/07/23 00:06:47;;;;;;;8.90;4.32;;;;;;;22.47;54.10;94747.50;5052735;28;20219;-63
2022/07/23 00:09:13;;;;;;;7.32;4.50;;;;;;;22.39;54.40;94751.09;5052694;28;20208;-63
2022/07/23 00:11:38;;;;;;;7.85;4.15;;;;;;;22.16;56.13;94724.00;5052463;28;20266;-63
2022/07/23 00:14:04;;;;;;;10.52;4.82;;;;;;;21.93;57.04;94710.63;5035055;28;20600;-63
2022/07/23 00:16:30;;;;;;;7.72;4.90;;;;;;;21.91;57.92;94716.00;5052195;28;20210;-63
2022/07/23 00:18:55;;;;;;;5.38;4.55;;;;;;;21.80;58.17;94711.38;5052286;28;20185;-62
2022/07/23 00:21:39;;;;;;;5.55;4.30;;;;;;;21.90;58.47;94726.56;5034286;28;20642;-63
2022/07/23 00:24:05;;;;;;;8.50;5.13;;;;;;;21.77;59.44;94718.72;5052212;28;20181;-63
2022/07/23 00:26:30;;;;;;;6.15;5.03;;;;;;;21.76;60.34;94717.94;5052380;28;20258;-63
2022/07/23 00:28:56;;;;;;;5.53;4.60;;;;;;;21.61;60.92;94719.91;5034292;28;20201;-63
2022/07/23 00:31:21;;;;;;;6.78;4.60;;;;;;;21.65;61.01;94732.22;5052172;28;20591;-62
2022/07/23 00:33:47;;;;;;;6.15;4.45;;;;;;;21.69;61.45;94738.63;5034307;28;20730;-63
2022/07/23 00:36:12;;;;;;;4.90;4.40;;;;;;;21.54;62.51;94738.00;5052152;28;20671;-63
2022/07/23 00:38:38;;;;;;;8.18;4.80;;;;;;;21.57;63.16;94752.34;5052370;28;20192;-63
2022/07/23 00:41:03;;;;;;;7.22;4.95;;;;;;;21.61;63.20;94756.13;5051959;28;20208;-62
2022/07/23 00:43:29;;;;;;;5.13;4.60;;;;;;;21.70;63.32;94750.56;5052363;28;20203;-63
2022/07/23 00:45:55;;;;;;;9.30;5.68;;;;;;;21.70;63.67;94749.78;5052159;28;20216;-62
2022/07/23 00:48:21;;;;;;;6.78;5.25;;;;;;;21.72;64.45;94758.13;5017906;28;20186;-64
2022/07/23 00:50:46;;;;;;;6.90;5.25;;;;;;;21.70;65.31;94752.34;5051752;28;20645;-64
2022/07/23 00:53:12;;;;;;;10.15;5.90;;;;;;;21.71;65.38;94767.69;5051638;28;20664;-64
2022/07/23 00:55:38;;;;;;;8.23;5.63;;;;;;;21.83;65.54;94749.84;5051775;28;20200;-63
2022/07/23 00:58:05;;;;;;;6.55;5.18;;;;;;;21.72;65.84;94753.78;5051697;28;20182;-64
2022/07/23 01:00:31;;;;;;;6.78;5.53;;;;;;;21.75;65.23;94761.13;5051340;28;20288;-63
2022/07/23 01:02:56;;;;;;;7.78;5.25;;;;;;;21.83;65.21;94762.00;5051584;28;20656;-64
2022/07/23 01:05:22;;;;;;;7.18;5.10;;;;;;;21.73;65.26;94773.47;5051628;28;20316;-63
2022/07/23 01:07:52;;;;;;;9.85;5.38;;;;;;;21.49;65.72;94763.63;5033513;28;20272;-63
2022/07/23 01:12:53;;;;;;;7.97;5.07;;;;;;;21.53;65.92;94753.72;5084211;22;20219;-63
2022/07/23 01:15:19;;;;;;;9.90;5.03;;;;;;;21.58;65.07;94762.50;5071289;28;20293;-63
2022/07/23 01:17:45;;;;;;;9.63;4.78;;;;;;;21.47;64.63;94765.63;5071751;28;20181;-63
2022/07/23 01:20:10;;;;;;;7.45;5.20;;;;;;;21.43;64.78;94763.63;5053632;28;20283;-62
2022/07/23 01:22:36;;;;;;;5.95;5.18;;;;;;;21.35;64.89;94764.56;5071424;28;20216;-63
2022/07/23 01:25:02;;;;;;;7.65;5.05;;;;;;;21.22;65.22;94754.19;5071397;28;20193;-64
2022/07/23 01:27:27;;;;;;;7.45;4.93;;;;;;;21.26;64.82;94765.75;5071706;28;20180;-64
2022/07/23 01:29:56;;;;;;;6.28;4.80;;;;;;;21.13;65.01;94757.91;5071267;28;20173;-62
2022/07/23 01:32:22;;;;;;;9.63;5.10;;;;;;;21.13;64.98;94760.50;5071113;28;20287;-64
2022/07/23 01:34:47;;;;;;;12.73;5.20;;;;;;;21.07;64.96;94765.66;5081643;22;20361;-62
2022/07/23 01:37:13;;;;;;;7.30;4.55;;;;;;;21.04;65.01;94759.06;5070949;28;20213;-62
2022/07/23 01:39:39;;;;;;;7.25;4.78;;;;;;;21.03;64.95;94759.28;5071371;28;20268;-64
2022/07/23 01:42:05;;;;;;;6.32;5.03;;;;;;;20.99;65.00;94760.59;5071057;28;20787;-63
2022/07/23 01:44:30;;;;;;;7.20;5.15;;;;;;;20.95;65.21;94759.38;5070948;28;20263;-61
2022/07/23 01:46:56;;;;;;;6.57;4.55;;;;;;;20.83;65.24;94752.16;5070803;28;20712;-63
2022/07/23 01:49:23;;;;;;;6.65;4.93;;;;;;;20.92;65.30;94761.38;5070913;28;20187;-62
2022/07/23 01:52:00;;;;;;;5.60;4.85;;;;;;;20.85;65.14;94760.50;5070794;28;20200;-62
2022/07/23 01:54:31;;;;;;;4.60;4.03;;;;;;;20.81;65.73;94745.56;5070750;28;20240;-63
2022/07/23 01:56:57;;;;;;;8.90;4.95;;;;;;;20.91;66.03;94753.78;5070588;28;20318;-63
2022/07/23 01:59:23;;;;;;;6.80;4.72;;;;;;;20.94;65.25;94768.94;5052994;28;20200;-63
2022/07/23 02:01:52;;;;;;;5.82;4.80;;;;;;;21.02;64.85;94762.81;5070625;28;20201;-62
2022/07/23 02:04:19;;;;;;;13.25;5.57;;;;;;;21.07;64.00;94773.41;5069209;28;20662;-62
2022/07/23 02:06:45;;;;;;;5.03;3.97;;;;;;;21.05;64.00;94785.72;5052670;28;20236;-64
2022/07/23 02:09:10;;;;;;;11.05;5.65;;;;;;;20.98;63.85;94774.50;5070398;28;20239;-63
2022/07/23 02:11:36;;;;;;;12.23;4.53;;;;;;;21.02;63.96;94778.34;5070716;28;20209;-62
2022/07/23 02:14:02;;;;;;;9.25;4.53;;;;;;;20.95;64.37;94773.09;5070828;28;20210;-62
2022/07/23 02:16:27;;;;;;;7.57;5.22;;;;;;;20.98;64.75;94759.81;5070344;28;20212;-63
2022/07/23 02:18:53;;;;;;;9.32;5.00;;;;;;;21.01;65.34;94751.66;5052690;28;20204;-64
2022/07/23 02:21:18;;;;;;;7.43;4.82;;;;;;;20.98;64.71;94769.34;5070470;28;20718;-63
2022/07/23 02:23:44;;;;;;;7.80;5.20;;;;;;;21.02;64.20;94780.91;5070645;28;20192;-61
2022/07/23 02:26:09;;;;;;;7.95;5.18;;;;;;;20.86;64.82;94764.72;5070751;28;20779;-63
2022/07/23 02:28:35;;;;;;;8.93;5.03;;;;;;;20.84;64.74;94760.72;5070437;28;20279;-64
2022/07/23 02:31:00;;;;;;;7.85;4.15;;;;;;;20.90;65.20;94765.13;5070466;28;20590;-63
2022/07/23 02:33:26;;;;;;;8.75;4.50;;;;;;;20.87;64.36;94778.41;5070416;28;20565;-63
2022/07/23 02:35:51;;;;;;;8.77;5.68;;;;;;;20.82;64.66;94765.28;5070002;28;20290;-63
2022/07/23 02:38:17;;;;;;;13.30;5.03;;;;;;;20.80;64.74;94767.25;5070267;28;20220;-62
2022/07/23 02:40:42;;;;;;;6.45;4.80;;;;;;;20.84;64.44;94773.63;5070118;28;20205;-64
2022/07/23 02:43:08;;;;;;;6.97;5.32;;;;;;;20.83;64.72;94770.25;5068988;28;20789;-63
2022/07/23 02:45:34;;;;;;;6.93;4.38;;;;;;;20.80;64.90;94772.41;5052042;28;20231;-63
2022/07/23 02:47:59;;;;;;;8.75;4.65;;;;;;;20.83;64.89;94775.41;5070263;28;20208;-61
2022/07/23 02:50:25;;;;;;;10.75;5.28;;;;;;;20.76;65.08;94777.16;5052428;28;20209;-63
2022/07/23 02:52:50;;;;;;;7.65;5.00;;;;;;;20.71;65.52;94764.00;5069073;28;20662;-63
2022/07/23 02:55:16;;;;;;;10.32;5.72;;;;;;;20.66;66.39;94761.19;5052180;28;20769;-62
2022/07/23 02:57:41;;;;;;;7.35;4.60;;;;;;;20.58;67.07;94752.78;5069312;28;20630;-63
2022/07/23 03:00:08;;;;;;;6.47;5.07;;;;;;;20.41;68.40;94747.09;5069962;28;20180;-63
2022/07/23 03:02:33;;;;;;;8.82;5.20;;;;;;;20.30;69.29;94739.06;5069995;28;20196;-62
2022/07/23 03:04:59;;;;;;;12.57;5.82;;;;;;;20.17;69.57;94739.72;5070343;28;20189;-62
2022/07/23 03:07:24;;;;;;;5.97;5.38;;;;;;;20.21;70.11;94759.06;5070333;28;20197;-62
2022/07/23 03:09:50;;;;;;;6.60;5.10;;;;;;;20.20;70.42;94761.81;5070260;28;20199;-63
2022/07/23 03:12:16;;;;;;;8.93;5.30;;;;;;;20.18;70.83;94754.22;5069927;28;20208;-63
2022/07/23 03:14:41;;;;;;;8.40;5.28;;;;;;;20.21;71.09;94771.16;5069668;28;20280;-64
2022/07/23 03:17:08;;;;;;;9.27;4.80;;;;;;;20.03;71.61;94758.66;5069789;28;20257;-62
2022/07/23 03:19:33;;;;;;;6.55;4.95;;;;;;;20.09;71.92;94758.72;5070180;28;20185;-63
2022/07/23 03:21:59;;;;;;;7.75;5.55;;;;;;;19.94;72.32;94749.44;5069611;28;20626;-62
2022/07/23 03:24:53;;;;;;;7.07;4.95;;;;;;;19.99;73.23;94762.59;5054085;28;20221;-62
2022/07/23 03:27:10;;;;;;;6.45;5.32;;;;;;;19.90;73.20;94772.22;5072685;28;20706;-61
2022/07/23 03:29:36;;;;;;;6.90;5.15;;;;;;;19.95;73.12;94782.00;5054974;28;20192;-62
2022/07/23 03:32:03;;;;;;;6.32;5.18;;;;;;;19.87;73.55;94777.78;5072751;28;20213;-61
2022/07/23 03:34:29;;;;;;;8.13;4.90;;;;;;;19.91;74.05;94781.59;5072656;28;20213;-61
2022/07/23 03:36:54;;;;;;;10.40;5.10;;;;;;;20.06;72.69;94791.84;5073005;28;20574;-62
2022/07/23 03:39:20;;;;;;;6.47;5.32;;;;;;;19.96;72.89;94783.59;5073079;28;20188;-61
2022/07/23 03:41:46;;;;;;;6.75;5.43;;;;;;;20.01;72.96;94787.25;5072710;28;20204;-64
2022/07/23 03:44:11;;;;;;;7.40;5.47;;;;;;;20.06;73.08;94786.66;5072676;28;20267;-61
2022/07/23 03:46:37;;;;;;;7.43;5.68;;;;;;;20.11;73.03;94794.69;5072733;28;20690;-63
2022/07/23 03:49:03;;;;;;;12.18;5.50;;;;;;;20.11;73.54;94779.19;5073009;28;20678;-62
2022/07/23 03:51:28;;;;;;;8.07;5.72;;;;;;;19.89;73.93;94773.22;5072588;28;20209;-60
2022/07/23 03:53:55;;;;;;;8.52;5.75;;;;;;;19.99;73.83;94788.41;5072586;28;20311;-61
2022/07/23 03:56:21;;;;;;;8.15;5.38;;;;;;;19.90;74.15;94787.72;5072622;28;20213;-62
2022/07/23 03:58:47;;;;;;;6.38;5.22;;;;;;;20.09;73.92;94794.88;5072455;28;20627;-61
2022/07/23 04:01:13;;;;;;;6.03;5.35;;;;;;;19.98;75.18;94785.00;5072469;28;20204;-62
2022/07/23 04:03:38;;;;;;;7.00;5.25;;;;;;;20.11;74.01;94802.41;5073033;28;20193;-60
2022/07/23 04:06:04;;;;;;;9.27;5.20;;;;;;;20.13;73.34;94800.44;5079828;22;20306;-60
2022/07/23 04:08:30;;;;;;;8.57;5.50;;;;;;;20.15;73.20;94795.09;5072539;28;20329;-63
2022/07/23 04:10:55;;;;;;;7.05;5.15;;;;;;;20.04;74.00;94788.63;5072389;28;20788;-62
2022/07/23 04:13:21;;;;;;;7.55;5.20;;;;;;;19.93;74.37;94781.41;5072348;28;20203;-62
2022/07/23 04:15:47;;;;;;;9.00;5.60;;;;;;;19.95;74.71;94787.16;5072172;28;20207;-62
2022/07/23 04:18:12;;;;;;;8.70;5.32;;;;;;;19.96;75.10;94784.41;5072396;28;20183;-61
2022/07/23 04:20:38;;;;;;;8.18;4.95;;;;;;;20.10;73.97;94801.63;5072171;28;20691;-63
2022/07/23 04:23:03;;;;;;;7.97;4.93;;;;;;;20.19;73.46;94798.91;5072276;28;20239;-61
2022/07/23 04:25:29;;;;;;;8.55;4.95;;;;;;;20.19;71.91;94829.88;5054062;28;20209;-64
2022/07/23 04:27:55;;;;;;;11.10;6.00;;;;;;;20.15;72.87;94813.97;5054157;28;20180;-62
2022/07/23 04:30:20;;;;;;;8.25;5.43;;;;;;;20.15;72.21;94823.50;5071820;28;20240;-62
2022/07/23 04:32:46;;;;;;;10.68;5.85;;;;;;;20.35;71.61;94842.59;5071865;28;20271;-61
2022/07/23 04:35:12;;;;;;;10.02;5.70;;;;;;;20.41;71.29;94845.25;5071358;28;20212;-61
2022/07/23 04:37:37;;;;;;;7.35;5.22;;;;;;;20.49;71.71;94844.31;5072007;28;20216;-62
2022/07/23 04:40:03;;;;;;;6.93;5.57;;;;;;;20.58;70.94;94848.38;5071854;28;20208;-61
2022/07/23 04:42:29;;;;;;;8.45;5.85;;;;;;;20.62;71.00;94852.19;5079487;22;20761;-62
2022/07/23 04:44:54;;;;;;;8.48;6.13;;;;;;;20.62;71.59;94837.50;5072062;28;20185;-61
2022/07/23 04:47:20;;;;;;;7.18;5.90;;;;;;;20.65;72.29;94815.63;5071708;28;20217;-61
2022/07/23 04:49:46;;;;;;;8.75;5.75;;;;;;;20.81;70.46;94864.44;5071638;28;20271;-61
2022/07/23 04:52:12;;;;;;;6.80;5.68;;;;;;;20.84;70.25;94851.16;5071958;28;20200;-61
2022/07/23 04:54:37;;;;;;;8.00;5.93;;;;;;;20.76;71.53;94831.44;5070209;28;20208;-61
2022/07/23 04:57:03;;;;;;;11.00;6.43;;;;;;;20.93;71.53;94827.56;5071737;28;20631;-64
2022/07/23 04:59:29;;;;;;;8.52;6.30;;;;;;;21.18;69.57;94884.84;5071589;28;20651;-63
2022/07/23 05:01:54;;;;;;;10.57;6.53;;;;;;;21.16;69.20;94889.41;5071768;28;20212;-64
2022/07/23 05:04:20;;;;;;;8.10;5.80;;;;;;;21.05;69.68;94871.81;5071616;28;20673;-65
2022/07/23 05:06:45;;;;;;;10.05;5.95;;;;;;;21.30;68.90;94883.34;5071471;28;20203;-64
2022/07/23 05:09:11;;;;;;;8.50;6.00;;;;;;;21.45;67.84;94901.34;5036880;28;20677;-64
2022/07/23 05:11:36;;;;;;;13.13;6.53;;;;;;;21.26;69.10;94878.72;5071415;28;20354;-64
2022/07/23 05:14:02;;;;;;;8.20;6.03;;;;;;;21.48;68.51;94896.59;5071591;28;20296;-63
2022/07/23 05:16:28;;;;;;;13.38;6.28;;;;;;;21.47;67.81;94907.91;5071144;28;20212;-63
2022/07/23 05:18:53;;;;;;;11.50;6.82;;;;;;;21.36;69.17;94879.19;5071269;28;20222;-63
2022/07/23 05:21:19;;;;;;;11.20;6.38;;;;;;;21.44;69.08;94873.88;5071638;28;20208;-63
2022/07/23 05:23:45;;;;;;;11.57;7.57;;;;;;;21.49;68.59;94893.00;5053192;28;20218;-63
2022/07/23 05:26:11;;;;;;;11.40;6.75;;;;;;;21.42;69.18;94873.25;5069933;28;20212;-63
2022/07/23 05:28:37;;;;;;;11.20;6.60;;;;;;;21.76;68.14;94904.28;5071342;28;20193;-63
2022/07/23 05:31:03;;;;;;;15.88;7.15;;;;;;;21.88;67.31;94925.28;5071015;28;20402;-63
2022/07/23 05:33:30;;;;;;;9.40;6.05;;;;;;;22.03;64.52;94983.75;5071218;28;20263;-63
2022/07/23 05:36:03;;;;;;;11.10;6.00;;;;;;;22.08;63.29;95003.91;5053051;28;20244;-65
2022/07/23 05:38:29;;;;;;;13.55;6.93;;;;;;;21.97;64.12;94978.53;5071409;28;20181;-62
2022/07/23 05:40:55;;;;;;;10.80;6.97;;;;;;;21.95;64.01;94975.31;5071317;28;20308;-65
2022/07/23 05:43:21;;;;;;;12.75;7.30;;;;;;;22.14;63.78;94982.41;5069475;28;20264;-65
2022/07/23 05:45:47;;;;;;;15.30;7.13;;;;;;;22.13;64.36;94962.66;5071001;28;20292;-64
2022/07/23 05:48:13;;;;;;;10.35;7.32;;;;;;;22.19;64.64;94956.72;5069681;28;20189;-64
2022/07/23 05:50:38;;;;;;;15.55;7.95;;;;;;;22.42;63.28;94977.94;5070851;28;20299;-64
2022/07/23 05:53:04;;;;;;;13.00;7.65;;;;;;;22.23;63.44;94982.03;5071155;28;20208;-64
2022/07/23 05:55:31;;;;;;;9.57;7.68;;;;;;;22.38;64.01;94968.97;5052471;28;20259;-65
2022/07/23 05:57:58;;;;;;;11.48;7.10;;;;;;;22.26;63.60;94989.41;5052716;28;20195;-63
2022/07/23 06:00:24;;;;;;;14.32;6.78;;;;;;;22.54;62.88;94994.53;5070608;28;20212;-65
2022/07/23 06:02:50;;;;;;;15.45;7.55;;;;;;;22.71;60.87;95037.28;5070839;28;20185;-65
2022/07/23 06:05:16;;;;;;;13.32;7.80;;;;;;;22.78;60.49;95040.69;5052448;28;20192;-64
2022/07/23 06:07:42;;;;;;;12.35;7.50;;;;;;;22.81;59.69;95045.47;5052727;28;20226;-65
2022/07/23 06:10:08;;;;;;;11.38;7.07;;;;;;;22.87;59.84;95052.47;5070382;28;20265;-63
2022/07/23 06:12:34;;;;;;;13.00;7.43;;;;;;;22.81;60.15;95029.13;5070387;28;20207;-63
2022/07/23 06:14:59;;;;;;;11.10;7.35;;;;;;;22.95;61.88;95005.63;5070191;28;20204;-64
2022/07/23 06:17:32;;;;;;;15.10;7.55;;;;;;;23.14;61.31;95017.84;5070250;28;20311;-64
2022/07/23 06:19:58;;;;;;;13.65;7.22;;;;;;;23.28;60.98;95018.63;5070040;28;20189;-63
2022/07/23 06:22:23;;;;;;;11.07;7.55;;;;;;;23.31;64.03;94954.19;5070366;28;20310;-62
2022/07/23 06:24:51;;;;;;;13.30;7.18;;;;;;;23.49;64.20;94953.59;5069892;28;20286;-64
2022/07/23 06:27:17;;;;;;;10.30;6.85;;;;;;;23.72;68.11;94862.25;5052240;28;20240;-63
2022/07/23 06:29:43;;;;;;;15.02;7.68;;;;;;;24.08;65.32;94940.50;5070320;28;20225;-63
2022/07/23 06:32:08;;;;;;;11.25;7.20;;;;;;;24.29;63.29;94976.59;5070245;28;20595;-61
2022/07/23 06:34:34;;;;;;;12.73;7.95;;;;;;;24.41;61.01;95013.94;5070139;28;20216;-61
2022/07/23 06:37:00;;;;;;;11.55;8.20;;;;;;;24.36;62.76;94977.34;5069975;28;20659;-61
2022/07/23 06:39:26;;;;;;;10.40;6.78;;;;;;;24.47;60.33;95033.94;5070170;28;20193;-62
2022/07/23 06:41:51;;;;;;;11.80;7.38;;;;;;;24.62;58.52;95068.28;5070370;28;20212;-62
2022/07/23 06:44:18;;;;;;;11.25;6.78;;;;;;;24.57;59.56;95036.09;5070055;28;20283;-62
2022/07/23 06:46:44;;;;;;;13.77;9.45;;;;;;;24.26;61.54;95002.22;5070250;28;20274;-62
2022/07/23 06:49:09;;;;;;;12.70;7.13;;;;;;;24.51;58.26;95062.91;5070121;28;20185;-62
2022/07/23 06:51:35;;;;;;;11.20;7.10;;;;;;;24.54;58.50;95070.31;5069711;28;20698;-62
2022/07/23 06:54:01;;;;;;;6.85;5.90;;;;;;;24.73;57.78;95075.47;5070326;28;20225;-63
2022/07/23 06:56:27;;;;;;;7.60;6.13;;;;;;;24.72;58.03;95067.84;5051772;28;20216;-64
2022/07/23 06:58:52;;;;;;;8.63;6.65;;;;;;;24.79;57.51;95077.25;5053548;28;20193;-64
2022/07/23 07:01:17;;;;;;;9.65;6.50;;;;;;;24.90;56.13;95104.41;5073594;28;20209;-61
2022/07/23 07:03:43;;;;;;;10.93;5.90;;;;;;;25.04;56.12;95108.56;5073337;28;20249;-61
2022/07/23 07:06:10;;;;;;;11.25;6.93;;;;;;;25.03;55.23;95117.34;5074242;28;20288;-62
2022/07/23 07:08:35;;;;;;;8.40;5.97;;;;;;;25.14;55.70;95108.09;5073223;28;20296;-61
2022/07/23 07:11:01;;;;;;;9.20;6.10;;;;;;;25.07;55.01;95115.16;5073451;28;20625;-61
2022/07/23 07:13:26;;;;;;;13.68;6.80;;;;;;;25.35;55.15;95105.19;5071829;28;20768;-61
2022/07/23 07:15:52;;;;;;;9.65;6.15;;;;;;;25.13;54.97;95098.72;5071772;28;20595;-60
2022/07/23 07:18:18;;;;;;;9.65;6.65;;;;;;;25.16;54.65;95108.69;5055822;28;20611;-64
2022/07/23 07:20:43;;;;;;;12.85;6.53;;;;;;;25.35;54.42;95100.78;5073015;28;20209;-62
2022/07/23 07:23:10;;;;;;;9.95;7.28;;;;;;;25.41;53.05;95143.44;5073501;28;20183;-63
2022/07/23 07:25:35;;;;;;;10.32;6.72;;;;;;;25.67;53.17;95131.03;5073090;28;20291;-63
2022/07/23 07:28:00;;;;;;;9.48;8.23;;;;;;;25.72;51.81;95152.06;5073055;28;20261;-62
2022/07/23 07:30:26;;;;;;;11.93;8.43;;;;;;;25.88;51.94;95160.41;5072844;28;20270;-62
2022/07/23 07:32:52;;;;;;;11.68;7.40;;;;;;;25.92;51.37;95167.56;5073091;28;20187;-63
2022/07/23 07:35:18;;;;;;;11.15;7.57;;;;;;;26.04;51.38;95152.81;5054760;28;20278;-63
2022/07/23 07:37:43;;;;;;;10.60;7.03;;;;;;;26.19;50.26;95179.41;5054795;28;20191;-64
2022/07/23 07:40:09;;;;;;;6.82;6.07;;;;;;;26.30;47.87;95240.53;5055145;28;20199;-63
2022/07/23 07:42:41;;;;;;;9.30;6.40;;;;;;;26.62;48.67;95213.38;5072733;28;20567;-64
2022/07/23 07:45:06;;;;;;;13.48;6.38;;;;;;;26.63;47.43;95234.03;5072572;28;20694;-63
2022/07/23 07:47:32;;;;;;;9.75;6.55;;;;;;;26.75;47.24;95233.31;5072609;28;20177;-63
2022/07/23 07:49:57;;;;;;;11.77;6.05;;;;;;;27.06;47.28;95233.22;5054510;28;20181;-63
2022/07/23 07:52:23;;;;;;;7.68;5.63;;;;;;;27.37;45.96;95274.91;5072546;28;20205;-64
2022/07/23 07:54:48;;;;;;;12.30;6.63;;;;;;;27.45;46.86;95235.44;5072399;28;20212;-63
2022/07/23 07:57:14;;;;;;;13.20;6.68;;;;;;;27.48;46.69;95232.38;5072483;28;20581;-63
2022/07/23 07:59:39;;;;;;;11.15;6.50;;;;;;;27.38;46.97;95208.59;5072484;28;20253;-63
2022/07/23 08:02:05;;;;;;;13.77;6.35;;;;;;;27.65;48.32;95162.81;5072336;28;20213;-63
2022/07/23 08:04:30;;;;;;;13.77;7.32;;;;;;;27.84;47.81;95166.16;5072370;28;20188;-64
2022/07/23 08:06:56;;;;;;;12.73;6.20;;;;;;;28.00;47.70;95113.25;5072275;28;20261;-63
2022/07/23 08:09:21;;;;;;;8.55;5.75;;;;;;;28.14;45.91;95115.41;5071777;28;20207;-63
2022/07/23 08:11:47;;;;;;;11.80;8.30;;;;;;;28.07;45.86;95099.06;5071500;28;20708;-63
2022/07/23 08:14:13;;;;;;;11.48;7.13;;;;;;;28.06;45.37;95102.69;5072167;28;20307;-63
2022/07/23 08:16:38;;;;;;;10.35;6.90;;;;;;;28.18;44.64;95118.38;5072361;28;20228;-63
2022/07/23 08:19:04;;;;;;;12.10;7.03;;;;;;;28.22;45.62;95081.06;5072480;28;20285;-64
2022/07/23 08:21:29;;;;;;;9.93;6.88;;;;;;;28.63;44.52;95103.72;5072047;28;20211;-65
2022/07/23 08:23:55;;;;;;;12.48;6.57;;;;;;;28.64;44.99;95094.03;5072046;28;20191;-62
2022/07/23 08:26:20;;;;;;;16.63;11.48;;;;;;;28.58;45.71;95063.56;5071829;28;20251;-65
2022/07/23 08:28:46;;;;;;;11.52;7.38;;;;;;;28.55;44.71;95082.28;5054139;28;20188;-64
2022/07/23 08:31:12;;;;;;;12.45;7.78;;;;;;;28.54;43.67;95104.28;5072000;28;20251;-63
2022/07/23 08:33:38;;;;;;;9.18;7.03;;;;;;;28.61;43.70;95097.09;5071809;28;20273;-64
2022/07/23 08:36:04;;;;;;;12.15;6.68;;;;;;;28.43;41.37;95123.38;5071952;28;20292;-64
2022/07/23 08:38:30;;;;;;;11.88;6.47;;;;;;;28.51;43.21;95068.88;5071822;28;20191;-63
2022/07/23 08:40:59;;;;;;;13.38;7.30;;;;;;;28.65;42.85;95072.88;5071925;28;20211;-63
2022/07/23 08:43:29;;;;;;;9.77;6.90;;;;;;;28.54;43.19;95072.88;5072197;28;20201;-64
2022/07/23 08:45:57;;;;;;;10.15;6.65;;;;;;;28.79;44.03;95039.38;5070310;28;20240;-63
2022/07/23 08:48:28;;;;;;;10.85;7.38;;;;;;;29.09;44.48;95024.22;5071607;28;20231;-65
2022/07/23 08:50:55;;;;;;;14.55;7.07;;;;;;;29.47;41.54;95095.16;5071458;28;20307;-64
2022/07/23 08:53:23;;;;;;;19.92;12.82;;;;;;;29.46;43.21;95041.16;5071817;28;20654;-62
2022/07/23 08:55:51;;;;;;;17.15;7.78;;;;;;;29.31;41.69;95082.81;5071282;28;20775;-62
2022/07/23 08:58:18;;;;;;;12.80;6.95;;;;;;;29.72;41.15;95077.28;5071546;28;20188;-63
2022/07/23 09:00:44;;;;;;;9.63;7.15;;;;;;;29.86;41.01;95069.09;5071426;28;20212;-61
2022/07/23 09:03:19;;;;;;;12.65;7.07;;;;;;;29.66;39.35;95098.34;5071544;28;20568;-63
2022/07/23 09:05:46;;;;;;;14.18;7.43;;;;;;;29.70;39.35;95089.78;5071452;28;20212;-63
2022/07/23 09:08:21;;;;;;;11.50;7.03;;;;;;;29.89;40.05;95066.00;5071669;28;20196;-65
2022/07/23 09:11:00;;;;;;;15.82;6.63;;;;;;;30.16;39.29;95072.94;5071408;28;20698;-64
2022/07/23 09:13:33;;;;;;;10.98;6.80;;;;;;;30.41;39.79;95060.22;5053517;28;20196;-64
2022/07/23 09:16:12;;;;;;;14.13;7.05;;;;;;;30.68;39.83;95057.69;5071417;28;20209;-64
2022/07/23 09:18:49;;;;;;;13.13;7.03;;;;;;;30.90;41.53;95013.84;5071669;28;20185;-61
2022/07/23 09:21:32;;;;;;;12.48;7.70;;;;;;;31.04;39.49;95061.53;5071374;28;20272;-63
2022/07/23 09:24:04;;;;;;;17.70;7.13;;;;;;;30.98;38.87;95067.78;5071164;28;20177;-61
2022/07/23 09:26:46;;;;;;;11.98;7.03;;;;;;;31.14;37.58;95080.84;5071521;28;20289;-61
2022/07/23 09:29:20;;;;;;;17.90;6.40;;;;;;;31.34;37.53;95075.78;5071173;28;20738;-61
2022/07/23 09:31:54;;;;;;;14.57;7.25;;;;;;;31.61;38.69;95046.91;5071164;28;20641;-61
2022/07/23 09:34:39;;;;;;;9.57;7.70;;;;;;;31.89;36.66;95082.63;5071304;28;20200;-63
2022/07/23 09:37:18;;;;;;;8.73;6.82;;;;;;;31.61;33.30;95128.41;5071422;28;20287;-63
2022/07/23 09:39:46;;;;;;;10.05;5.97;;;;;;;31.82;33.82;95087.28;5071637;28;20181;-64
2022/07/23 09:42:19;;;;;;;13.60;6.57;;;;;;;31.44;33.93;95068.03;5071856;28;20631;-62
2022/07/23 09:44:50;;;;;;;9.48;6.80;;;;;;;31.67;34.11;95066.13;5071098;28;20220;-61
2022/07/23 09:47:16;;;;;;;6.72;5.68;;;;;;;32.04;31.55;95116.97;5071060;28;20222;-61
2022/07/23 09:50:01;;;;;;;10.20;6.07;;;;;;;32.23;31.47;95095.28;5071298;28;20565;-64
2022/07/23 09:52:29;;;;;;;16.50;8.73;;;;;;;32.54;31.61;95075.22;5071373;28;20193;-64
2022/07/23 09:55:00;;;;;;;12.52;6.38;;;;;;;33.02;31.70;95068.88;5052897;28;20209;-64
2022/07/23 09:57:27;;;;;;;10.88;6.28;;;;;;;33.15;32.12;95064.97;5070671;28;20253;-64
2022/07/23 09:59:52;;;;;;;7.32;5.63;;;;;;;32.83;29.93;95089.56;5070694;28;20192;-63
2022/07/23 10:02:19;;;;;;;6.85;5.03;;;;;;;33.07;28.49;95086.53;5070601;28;20205;-64
2022/07/23 10:04:45;;;;;;;12.50;6.68;;;;;;;33.46;27.48;95092.97;5071129;28;20181;-64
2022/07/23 10:07:12;;;;;;;13.82;5.47;;;;;;;33.85;28.90;95034.19;5071375;28;20235;-63
2022/07/23 10:09:41;;;;;;;10.02;5.03;;;;;;;34.07;26.34;95086.72;5071036;28;20222;-62
2022/07/23 10:12:25;;;;;;;9.52;7.22;;;;;;;33.51;27.93;95050.81;5070734;28;20220;-63
2022/07/23 10:14:51;;;;;;;6.13;5.53;;;;;;;33.67;28.19;95039.22;5070517;28;20216;-63
2022/07/23 10:17:18;;;;;;;9.80;4.82;;;;;;;33.80;29.56;95009.63;5070435;28;20304;-62
2022/07/23 10:19:44;;;;;;;10.82;5.40;;;;;;;34.32;28.99;95022.53;5070422;28;20191;-63
2022/07/23 10:22:25;;;;;;;10.50;5.85;;;;;;;34.82;30.07;94995.16;5070429;28;20299;-63
2022/07/23 10:25:01;;;;;;;9.18;5.75;;;;;;;35.19;28.75;95016.66;5070993;28;20561;-62
2022/07/23 10:27:54;;;;;;;8.68;5.45;;;;;;;34.93;28.86;95000.09;5070485;28;20193;-63
2022/07/23 10:30:30;;;;;;;6.22;5.28;;;;;;;35.27;27.84;95018.72;5070286;28;20220;-63
2022/07/23 10:33:23;;;;;;;12.80;5.75;;;;;;;34.48;24.89;95059.22;5069550;28;20195;-62
2022/07/23 10:36:16;;;;;;;8.88;5.57;;;;;;;35.03;26.41;95025.75;5070719;28;20232;-63
2022/07/23 10:38:52;;;;;;;8.80;5.93;;;;;;;35.30;26.74;95007.56;5069956;28;20193;-64
2022/07/23 10:41:40;;;;;;;7.35;5.32;;;;;;;35.81;28.32;94981.53;5068877;28;20227;-64
2022/07/23 10:44:35;;;;;;;8.77;5.68;;;;;;;35.74;27.34;94978.41;5070047;28;20189;-63
2022/07/23 10:49:33;;;;;;;11.75;6.10;;;;;;;36.10;26.66;94982.34;5070060;28;20678;-63
2022/07/23 10:52:14;;;;;;;9.77;5.40;;;;;;;36.01;26.18;94998.06;5070587;28;20724;-64
2022/07/23 10:54:41;;;;;;;11.10;5.45;;;;;;;35.97;24.59;95025.38;5070156;28;20265;-63
2022/07/23 10:57:09;;;;;;;12.52;5.82;;;;;;;36.23;24.99;94998.34;5070058;28;20675;-63
2022/07/23 11:02:32;;;;;;;7.05;4.68;;;;;;;35.81;22.60;95026.53;5069710;28;20197;-64
2022/07/23 11:05:04;;;;;;;14.10;5.18;;;;;;;35.81;21.06;95059.09;5069825;28;20201;-64
2022/07/23 11:07:30;;;;;;;8.02;5.15;;;;;;;36.31;21.19;95034.03;5069649;28;20195;-64
2022/07/23 11:09:55;;;;;;;10.48;6.25;;;;;;;36.74;21.63;95025.09;5077742;22;20185;-63
2022/07/23 11:12:27;;;;;;;13.77;5.20;;;;;;;36.57;21.70;95010.72;5069410;28;20231;-63
2022/07/23 11:15:10;;;;;;;13.25;5.50;;;;;;;35.44;22.10;94992.66;5069674;28;20197;-64
2022/07/23 11:17:56;;;;;;;10.07;5.40;;;;;;;35.47;22.33;94994.00;5069740;28;20220;-62
2022/07/23 11:20:23;;;;;;;8.95;5.10;;;;;;;35.96;22.71;94974.25;5055651;28;20229;-64
2022/07/23 11:22:59;;;;;;;9.35;4.82;;;;;;;36.06;22.67;94973.38;5069397;28;20193;-63
2022/07/23 11:25:24;;;;;;;9.93;5.15;;;;;;;36.65;21.60;94988.88;5051902;28;20216;-63
2022/07/23 11:27:52;;;;;;;8.23;4.95;;;;;;;37.15;19.61;95017.41;5069732;28;20733;-64
2022/07/23 11:30:26;;;;;;;13.15;4.90;;;;;;;37.53;20.87;94981.84;5052022;28;20193;-63
2022/07/23 11:32:54;;;;;;;11.40;5.43;;;;;;;37.84;20.76;94993.56;5069938;28;20192;-63
2022/07/23 11:35:26;;;;;;;11.85;4.85;;;;;;;38.00;20.36;94990.66;5069478;28;20221;-62
2022/07/23 11:38:07;;;;;;;11.52;4.97;;;;;;;37.42;19.29;94987.59;5051764;28;20185;-63
2022/07/23 11:40:35;;;;;;;10.95;5.75;;;;;;;37.42;19.76;94977.78;5069268;28;20693;-62